sensor_id;sensor_type;location;lat;lon;timestamp;temperature;humidity
26803;DHT22;14378;51.796;5.808;2023-02-28T00:05:42;2.70;99.90
26803;DHT22;14378;51.796;5.808;2023-02-28T00:07:43;2.70;99.90
26803;DHT22;14378;51.796;5.808;2023-02-28T00:09:45;2.70;99.90
26803;DHT22;14378;51.796;5.808;2023-02-28T00:11:45;2.70;99.90
26803;DHT22;14378;51.796;5.808;2023-02-28T00:13:54;2.60;99.90
26803;DHT22;14378;51.796;5.808;2023-02-28T00:16:03;2.60;99.90
26803;DHT22;14378;51.796;5.808;2023-02-28T00:18:05;2.60;99.90
26803;DHT22;14378;51.796;5.808;2023-02-28T00:20:06;2.60;99.90
26803;DHT22;14378;51.796;5.808;2023-02-28T00:22:12;2.60;99.90
26803;DHT22;14378;51.796;5.808;2023-02-28T00:24:14;2.60;99.90
26803;DHT22;14378;51.796;5.808;2023-02-28T00:26:15;2.60;99.90
26803;DHT22;14378;51.796;5.808;2023-02-28T00:28:19;2.60;99.90
26803;DHT22;14378;51.796;5.808;2023-02-28T00:30:23;2.60;99.90
26803;DHT22;14378;51.796;5.808;2023-02-28T00:32:24;2.60;99.90
26803;DHT22;14378;51.796;5.808;2023-02-28T00:34:25;2.50;99.90
26803;DHT22;14378;51.796;5.808;2023-02-28T00:36:27;2.50;99.90
26803;DHT22;14378;51.796;5.808;2023-02-28T00:38:28;2.50;99.90
26803;DHT22;14378;51.796;5.808;2023-02-28T00:40:29;2.50;99.90
26803;DHT22;14378;51.796;5.808;2023-02-28T00:42:30;2.50;99.90
26803;DHT22;14378;51.796;5.808;2023-02-28T00:44:31;2.50;99.90
26803;DHT22;14378;51.796;5.808;2023-02-28T00:46:32;2.40;99.90
26803;DHT22;14378;51.796;5.808;2023-02-28T00:48:33;2.40;99.90
26803;DHT22;14378;51.796;5.808;2023-02-28T00:50:34;2.40;99.90
26803;DHT22;14378;51.796;5.808;2023-02-28T00:52:35;2.40;99.90
26803;DHT22;14378;51.796;5.808;2023-02-28T00:54:36;2.40;99.90
26803;DHT22;14378;51.796;5.808;2023-02-28T00:56:37;2.40;99.90
26803;DHT22;14378;51.796;5.808;2023-02-28T00:58:38;2.40;99.90
26803;DHT22;14378;51.796;5.808;2023-02-28T01:00:40;2.30;99.90
26803;DHT22;14378;51.796;5.808;2023-02-28T01:02:41;2.30;99.90
26803;DHT22;14378;51.796;5.808;2023-02-28T01:04:42;2.40;99.90
26803;DHT22;14378;51.796;5.808;2023-02-28T01:06:44;2.40;99.90
26803;DHT22;14378;51.796;5.808;2023-02-28T01:08:45;2.30;99.90
26803;DHT22;14378;51.796;5.808;2023-02-28T01:10:46;2.30;99.90
26803;DHT22;14378;51.796;5.808;2023-02-28T01:12:48;2.30;99.90
26803;DHT22;14378;51.796;5.808;2023-02-28T01:14:51;2.30;99.90
26803;DHT22;14378;51.796;5.808;2023-02-28T01:16:55;2.30;99.90
26803;DHT22;14378;51.796;5.808;2023-02-28T01:18:57;2.30;99.90
26803;DHT22;14378;51.796;5.808;2023-02-28T01:21:08;2.30;99.90
26803;DHT22;14378;51.796;5.808;2023-02-28T01:23:10;2.30;99.90
26803;DHT22;14378;51.796;5.808;2023-02-28T01:25:11;2.30;99.90
26803;DHT22;14378;51.796;5.808;2023-02-28T01:27:12;2.30;99.90
26803;DHT22;14378;51.796;5.808;2023-02-28T01:29:15;2.30;99.90
26803;DHT22;14378;51.796;5.808;2023-02-28T01:31:16;2.30;99.90
26803;DHT22;14378;51.796;5.808;2023-02-28T01:33:18;2.40;99.90
26803;DHT22;14378;51.796;5.808;2023-02-28T01:35:20;2.40;99.90
26803;DHT22;14378;51.796;5.808;2023-02-28T01:37:22;2.40;99.90
26803;DHT22;14378;51.796;5.808;2023-02-28T01:39:23;2.40;99.90
26803;DHT22;14378;51.796;5.808;2023-02-28T01:41:29;2.40;99.90
26803;DHT22;14378;51.796;5.808;2023-02-28T01:43:35;2.40;99.90
26803;DHT22;14378;51.796;5.808;2023-02-28T01:45:54;2.40;99.90
26803;DHT22;14378;51.796;5.808;2023-02-28T01:47:59;2.50;99.90
26803;DHT22;14378;51.796;5.808;2023-02-28T01:50:05;2.50;99.90
26803;DHT22;14378;51.796;5.808;2023-02-28T01:52:07;2.50;99.90
26803;DHT22;14378;51.796;5.808;2023-02-28T01:54:12;2.60;99.90
26803;DHT22;14378;51.796;5.808;2023-02-28T01:56:19;2.50;99.90
26803;DHT22;14378;51.796;5.808;2023-02-28T01:58:24;2.60;99.90
26803;DHT22;14378;51.796;5.808;2023-02-28T02:00:26;2.60;99.90
26803;DHT22;14378;51.796;5.808;2023-02-28T02:02:29;2.60;99.90
26803;DHT22;14378;51.796;5.808;2023-02-28T02:04:37;2.60;99.90
26803;DHT22;14378;51.796;5.808;2023-02-28T02:06:43;2.60;99.90
26803;DHT22;14378;51.796;5.808;2023-02-28T02:08:44;2.70;99.90
26803;DHT22;14378;51.796;5.808;2023-02-28T02:10:49;2.70;99.90
26803;DHT22;14378;51.796;5.808;2023-02-28T02:13:30;2.70;99.90
26803;DHT22;14378;51.796;5.808;2023-02-28T02:18:08;2.80;99.90
26803;DHT22;14378;51.796;5.808;2023-02-28T02:27:34;2.90;99.90
26803;DHT22;14378;51.796;5.808;2023-02-28T02:36:35;3.00;99.90
26803;DHT22;14378;51.796;5.808;2023-02-28T02:39:04;3.00;99.90
26803;DHT22;14378;51.796;5.808;2023-02-28T02:43:24;3.00;99.90
26803;DHT22;14378;51.796;5.808;2023-02-28T02:45:43;3.10;99.90
26803;DHT22;14378;51.796;5.808;2023-02-28T02:47:48;3.10;99.90
26803;DHT22;14378;51.796;5.808;2023-02-28T02:49:52;3.10;99.90
26803;DHT22;14378;51.796;5.808;2023-02-28T02:51:56;3.10;99.90
26803;DHT22;14378;51.796;5.808;2023-02-28T02:54:28;3.10;99.90
26803;DHT22;14378;51.796;5.808;2023-02-28T02:56:33;3.10;99.90
26803;DHT22;14378;51.796;5.808;2023-02-28T02:58:41;3.20;99.90
26803;DHT22;14378;51.796;5.808;2023-02-28T03:00:48;3.20;99.90
26803;DHT22;14378;51.796;5.808;2023-02-28T03:02:52;3.20;99.90
26803;DHT22;14378;51.796;5.808;2023-02-28T03:05:01;3.20;99.90
26803;DHT22;14378;51.796;5.808;2023-02-28T03:07:03;3.20;99.90
26803;DHT22;14378;51.796;5.808;2023-02-28T03:09:04;3.20;99.90
26803;DHT22;14378;51.796;5.808;2023-02-28T03:11:09;3.30;99.90
26803;DHT22;14378;51.796;5.808;2023-02-28T03:21:40;3.30;99.90
26803;DHT22;14378;51.796;5.808;2023-02-28T03:26:21;3.30;99.90
26803;DHT22;14378;51.796;5.808;2023-02-28T03:30:54;3.30;99.90
26803;DHT22;14378;51.796;5.808;2023-02-28T03:33:19;3.40;99.90
26803;DHT22;14378;51.796;5.808;2023-02-28T03:35:43;3.30;99.90
26803;DHT22;14378;51.796;5.808;2023-02-28T03:37:46;3.40;99.90
26803;DHT22;14378;51.796;5.808;2023-02-28T03:40:00;3.40;99.90
26803;DHT22;14378;51.796;5.808;2023-02-28T03:42:23;3.40;99.90
26803;DHT22;14378;51.796;5.808;2023-02-28T03:44:30;3.40;99.90
26803;DHT22;14378;51.796;5.808;2023-02-28T03:46:38;3.40;99.90
26803;DHT22;14378;51.796;5.808;2023-02-28T03:48:48;3.40;99.90
26803;DHT22;14378;51.796;5.808;2023-02-28T03:50:55;3.40;99.90
26803;DHT22;14378;51.796;5.808;2023-02-28T03:53:09;3.40;99.90
26803;DHT22;14378;51.796;5.808;2023-02-28T03:55:13;3.40;99.90
26803;DHT22;14378;51.796;5.808;2023-02-28T03:59:56;3.50;99.90
26803;DHT22;14378;51.796;5.808;2023-02-28T04:02:01;3.50;99.90
26803;DHT22;14378;51.796;5.808;2023-02-28T04:04:02;3.50;99.90
26803;DHT22;14378;51.796;5.808;2023-02-28T04:06:04;3.40;99.90
26803;DHT22;14378;51.796;5.808;2023-02-28T04:08:07;3.40;99.90
26803;DHT22;14378;51.796;5.808;2023-02-28T04:10:09;3.40;99.90
26803;DHT22;14378;51.796;5.808;2023-02-28T04:12:11;3.50;99.90
26803;DHT22;14378;51.796;5.808;2023-02-28T04:14:12;3.50;99.90
26803;DHT22;14378;51.796;5.808;2023-02-28T04:16:13;3.50;99.90
26803;DHT22;14378;51.796;5.808;2023-02-28T04:18:14;3.50;99.90
26803;DHT22;14378;51.796;5.808;2023-02-28T04:20:15;3.60;99.90
26803;DHT22;14378;51.796;5.808;2023-02-28T04:22:16;3.60;99.90
26803;DHT22;14378;51.796;5.808;2023-02-28T04:24:22;3.60;99.90
26803;DHT22;14378;51.796;5.808;2023-02-28T04:26:23;3.60;99.90
26803;DHT22;14378;51.796;5.808;2023-02-28T04:28:24;3.60;99.90
26803;DHT22;14378;51.796;5.808;2023-02-28T04:30:25;3.60;99.90
26803;DHT22;14378;51.796;5.808;2023-02-28T04:32:26;3.70;99.90
26803;DHT22;14378;51.796;5.808;2023-02-28T04:34:29;3.70;99.90
26803;DHT22;14378;51.796;5.808;2023-02-28T04:36:30;3.70;99.90
26803;DHT22;14378;51.796;5.808;2023-02-28T04:38:36;3.70;99.90
26803;DHT22;14378;51.796;5.808;2023-02-28T04:40:37;3.70;99.90
26803;DHT22;14378;51.796;5.808;2023-02-28T04:42:39;3.70;99.90
26803;DHT22;14378;51.796;5.808;2023-02-28T04:44:40;3.70;99.90
26803;DHT22;14378;51.796;5.808;2023-02-28T04:46:41;3.70;99.90
26803;DHT22;14378;51.796;5.808;2023-02-28T04:48:43;3.70;99.90
26803;DHT22;14378;51.796;5.808;2023-02-28T04:50:45;3.70;99.90
26803;DHT22;14378;51.796;5.808;2023-02-28T04:52:45;3.70;99.90
26803;DHT22;14378;51.796;5.808;2023-02-28T04:54:46;3.70;99.90
26803;DHT22;14378;51.796;5.808;2023-02-28T04:56:47;3.80;99.90
26803;DHT22;14378;51.796;5.808;2023-02-28T04:58:51;3.80;99.90
26803;DHT22;14378;51.796;5.808;2023-02-28T05:01:04;3.80;99.90
26803;DHT22;14378;51.796;5.808;2023-02-28T05:03:13;3.80;99.90
26803;DHT22;14378;51.796;5.808;2023-02-28T05:05:15;3.80;99.90
26803;DHT22;14378;51.796;5.808;2023-02-28T05:07:18;3.80;99.90
26803;DHT22;14378;51.796;5.808;2023-02-28T05:09:23;3.80;99.90
26803;DHT22;14378;51.796;5.808;2023-02-28T05:11:32;3.80;99.90
26803;DHT22;14378;51.796;5.808;2023-02-28T05:13:35;3.80;99.90
26803;DHT22;14378;51.796;5.808;2023-02-28T05:15:36;3.80;99.90
26803;DHT22;14378;51.796;5.808;2023-02-28T05:17:37;3.80;99.90
26803;DHT22;14378;51.796;5.808;2023-02-28T05:19:41;3.80;99.90
26803;DHT22;14378;51.796;5.808;2023-02-28T05:21:53;3.80;99.90
26803;DHT22;14378;51.796;5.808;2023-02-28T05:23:56;3.80;99.90
26803;DHT22;14378;51.796;5.808;2023-02-28T05:25:58;3.80;99.90
26803;DHT22;14378;51.796;5.808;2023-02-28T05:27:59;3.80;99.90
26803;DHT22;14378;51.796;5.808;2023-02-28T05:29:59;3.80;99.90
26803;DHT22;14378;51.796;5.808;2023-02-28T05:32:04;3.80;99.90
26803;DHT22;14378;51.796;5.808;2023-02-28T05:34:05;3.80;99.90
26803;DHT22;14378;51.796;5.808;2023-02-28T05:36:06;3.90;99.90
26803;DHT22;14378;51.796;5.808;2023-02-28T05:38:08;3.90;99.90
26803;DHT22;14378;51.796;5.808;2023-02-28T05:40:10;3.90;99.90
26803;DHT22;14378;51.796;5.808;2023-02-28T05:42:11;3.90;99.90
26803;DHT22;14378;51.796;5.808;2023-02-28T05:44:12;3.80;99.90
26803;DHT22;14378;51.796;5.808;2023-02-28T05:46:13;3.90;99.90
26803;DHT22;14378;51.796;5.808;2023-02-28T05:48:14;3.90;99.90
26803;DHT22;14378;51.796;5.808;2023-02-28T05:50:15;3.90;99.90
26803;DHT22;14378;51.796;5.808;2023-02-28T05:52:17;3.90;99.90
26803;DHT22;14378;51.796;5.808;2023-02-28T05:54:18;3.90;99.90
26803;DHT22;14378;51.796;5.808;2023-02-28T05:56:19;3.90;99.90
26803;DHT22;14378;51.796;5.808;2023-02-28T05:58:24;3.90;99.90
26803;DHT22;14378;51.796;5.808;2023-02-28T06:00:31;3.80;99.90
26803;DHT22;14378;51.796;5.808;2023-02-28T06:02:33;3.80;99.90
26803;DHT22;14378;51.796;5.808;2023-02-28T06:04:34;3.80;99.90
26803;DHT22;14378;51.796;5.808;2023-02-28T06:06:35;3.80;99.90
26803;DHT22;14378;51.796;5.808;2023-02-28T06:08:37;3.80;99.90
26803;DHT22;14378;51.796;5.808;2023-02-28T06:10:39;3.80;99.90
26803;DHT22;14378;51.796;5.808;2023-02-28T06:12:40;3.80;99.90
26803;DHT22;14378;51.796;5.808;2023-02-28T06:14:42;3.80;99.90
26803;DHT22;14378;51.796;5.808;2023-02-28T06:16:43;3.80;99.90
26803;DHT22;14378;51.796;5.808;2023-02-28T06:18:44;3.80;99.90
26803;DHT22;14378;51.796;5.808;2023-02-28T06:20:45;3.70;99.90
26803;DHT22;14378;51.796;5.808;2023-02-28T06:22:58;3.70;99.90
26803;DHT22;14378;51.796;5.808;2023-02-28T06:24:59;3.70;99.90
26803;DHT22;14378;51.796;5.808;2023-02-28T06:27:00;3.70;99.90
26803;DHT22;14378;51.796;5.808;2023-02-28T06:29:05;3.70;99.90
26803;DHT22;14378;51.796;5.808;2023-02-28T06:31:10;3.70;99.90
26803;DHT22;14378;51.796;5.808;2023-02-28T06:33:12;3.70;99.90
26803;DHT22;14378;51.796;5.808;2023-02-28T06:35:13;3.60;99.90
26803;DHT22;14378;51.796;5.808;2023-02-28T06:37:14;3.60;99.90
26803;DHT22;14378;51.796;5.808;2023-02-28T06:39:15;3.60;99.90
26803;DHT22;14378;51.796;5.808;2023-02-28T06:41:17;3.70;99.90
26803;DHT22;14378;51.796;5.808;2023-02-28T06:43:18;3.60;99.90
26803;DHT22;14378;51.796;5.808;2023-02-28T06:45:19;3.70;99.90
26803;DHT22;14378;51.796;5.808;2023-02-28T06:47:21;3.70;99.90
26803;DHT22;14378;51.796;5.808;2023-02-28T06:49:25;3.60;99.90
26803;DHT22;14378;51.796;5.808;2023-02-28T06:51:27;3.70;99.90
26803;DHT22;14378;51.796;5.808;2023-02-28T06:53:27;3.70;99.90
26803;DHT22;14378;51.796;5.808;2023-02-28T06:55:28;3.70;99.90
26803;DHT22;14378;51.796;5.808;2023-02-28T06:57:31;3.60;99.90
26803;DHT22;14378;51.796;5.808;2023-02-28T06:59:32;3.60;99.90
26803;DHT22;14378;51.796;5.808;2023-02-28T07:01:33;3.60;99.90
26803;DHT22;14378;51.796;5.808;2023-02-28T07:03:35;3.70;99.90
26803;DHT22;14378;51.796;5.808;2023-02-28T07:05:37;3.60;99.90
26803;DHT22;14378;51.796;5.808;2023-02-28T07:07:39;3.60;99.90
26803;DHT22;14378;51.796;5.808;2023-02-28T07:09:44;3.60;99.90
26803;DHT22;14378;51.796;5.808;2023-02-28T07:11:45;3.60;99.90
26803;DHT22;14378;51.796;5.808;2023-02-28T07:13:46;3.60;99.90
26803;DHT22;14378;51.796;5.808;2023-02-28T07:15:59;3.60;99.90
26803;DHT22;14378;51.796;5.808;2023-02-28T07:18:00;3.60;99.90
26803;DHT22;14378;51.796;5.808;2023-02-28T07:20:01;3.60;99.90
26803;DHT22;14378;51.796;5.808;2023-02-28T07:22:05;3.60;99.90
26803;DHT22;14378;51.796;5.808;2023-02-28T07:24:06;3.70;99.90
26803;DHT22;14378;51.796;5.808;2023-02-28T07:26:11;3.70;99.90
26803;DHT22;14378;51.796;5.808;2023-02-28T07:28:15;3.70;99.90
26803;DHT22;14378;51.796;5.808;2023-02-28T07:30:16;3.70;99.90
26803;DHT22;14378;51.796;5.808;2023-02-28T07:32:18;3.70;99.90
26803;DHT22;14378;51.796;5.808;2023-02-28T07:34:23;3.70;99.90
26803;DHT22;14378;51.796;5.808;2023-02-28T07:36:25;3.80;99.90
26803;DHT22;14378;51.796;5.808;2023-02-28T07:38:26;3.80;99.90
26803;DHT22;14378;51.796;5.808;2023-02-28T07:40:27;3.80;99.90
26803;DHT22;14378;51.796;5.808;2023-02-28T07:42:28;3.80;99.90
26803;DHT22;14378;51.796;5.808;2023-02-28T07:44:29;3.80;99.90
26803;DHT22;14378;51.796;5.808;2023-02-28T07:46:30;3.70;99.90
26803;DHT22;14378;51.796;5.808;2023-02-28T07:48:36;3.70;99.90
26803;DHT22;14378;51.796;5.808;2023-02-28T07:50:37;3.70;99.90
26803;DHT22;14378;51.796;5.808;2023-02-28T07:52:41;3.70;99.90
26803;DHT22;14378;51.796;5.808;2023-02-28T07:54:42;3.70;99.90
26803;DHT22;14378;51.796;5.808;2023-02-28T07:56:43;3.70;99.90
26803;DHT22;14378;51.796;5.808;2023-02-28T07:58:44;3.70;99.90
26803;DHT22;14378;51.796;5.808;2023-02-28T08:00:45;3.70;99.90
26803;DHT22;14378;51.796;5.808;2023-02-28T08:02:46;3.70;99.90
26803;DHT22;14378;51.796;5.808;2023-02-28T08:04:46;3.70;99.90
26803;DHT22;14378;51.796;5.808;2023-02-28T08:06:48;3.70;99.90
26803;DHT22;14378;51.796;5.808;2023-02-28T08:08:53;3.70;99.90
26803;DHT22;14378;51.796;5.808;2023-02-28T08:10:53;3.70;99.90
26803;DHT22;14378;51.796;5.808;2023-02-28T08:12:54;3.70;99.90
26803;DHT22;14378;51.796;5.808;2023-02-28T08:14:55;3.70;99.90
26803;DHT22;14378;51.796;5.808;2023-02-28T08:16:56;3.60;99.90
26803;DHT22;14378;51.796;5.808;2023-02-28T08:18:57;3.60;99.90
26803;DHT22;14378;51.796;5.808;2023-02-28T08:20:58;3.60;99.90
26803;DHT22;14378;51.796;5.808;2023-02-28T08:22:59;3.70;99.90
26803;DHT22;14378;51.796;5.808;2023-02-28T08:25:01;3.70;99.90
26803;DHT22;14378;51.796;5.808;2023-02-28T08:27:02;3.70;99.90
26803;DHT22;14378;51.796;5.808;2023-02-28T08:29:02;3.70;99.90
26803;DHT22;14378;51.796;5.808;2023-02-28T08:31:11;3.70;99.90
26803;DHT22;14378;51.796;5.808;2023-02-28T08:33:12;3.80;99.90
26803;DHT22;14378;51.796;5.808;2023-02-28T08:35:13;3.80;99.90
26803;DHT22;14378;51.796;5.808;2023-02-28T08:37:14;3.90;99.90
26803;DHT22;14378;51.796;5.808;2023-02-28T08:39:15;3.90;99.90
26803;DHT22;14378;51.796;5.808;2023-02-28T08:41:16;4.00;99.90
26803;DHT22;14378;51.796;5.808;2023-02-28T08:43:17;4.00;99.90
26803;DHT22;14378;51.796;5.808;2023-02-28T08:45:18;4.20;99.90
26803;DHT22;14378;51.796;5.808;2023-02-28T08:47:19;4.20;99.90
26803;DHT22;14378;51.796;5.808;2023-02-28T08:49:21;4.30;99.90
26803;DHT22;14378;51.796;5.808;2023-02-28T08:51:22;4.40;99.40
26803;DHT22;14378;51.796;5.808;2023-02-28T08:53:27;4.40;99.50
26803;DHT22;14378;51.796;5.808;2023-02-28T08:55:28;4.50;99.70
26803;DHT22;14378;51.796;5.808;2023-02-28T08:57:29;4.50;99.50
26803;DHT22;14378;51.796;5.808;2023-02-28T08:59:31;4.50;99.70
26803;DHT22;14378;51.796;5.808;2023-02-28T09:01:32;4.60;99.60
26803;DHT22;14378;51.796;5.808;2023-02-28T09:03:34;4.60;99.40
26803;DHT22;14378;51.796;5.808;2023-02-28T09:05:35;4.60;99.60
26803;DHT22;14378;51.796;5.808;2023-02-28T09:07:36;4.60;98.70
26803;DHT22;14378;51.796;5.808;2023-02-28T09:09:37;4.60;98.50
26803;DHT22;14378;51.796;5.808;2023-02-28T09:11:38;4.70;98.90
26803;DHT22;14378;51.796;5.808;2023-02-28T09:13:39;4.70;99.00
26803;DHT22;14378;51.796;5.808;2023-02-28T09:15:41;4.80;98.80
26803;DHT22;14378;51.796;5.808;2023-02-28T09:17:42;4.90;99.30
26803;DHT22;14378;51.796;5.808;2023-02-28T09:19:43;5.00;99.20
26803;DHT22;14378;51.796;5.808;2023-02-28T09:21:44;5.10;99.80
26803;DHT22;14378;51.796;5.808;2023-02-28T09:23:47;5.20;99.40
26803;DHT22;14378;51.796;5.808;2023-02-28T09:25:53;5.30;99.30
26803;DHT22;14378;51.796;5.808;2023-02-28T09:27:55;5.40;99.40
26803;DHT22;14378;51.796;5.808;2023-02-28T09:29:56;5.40;98.10
26803;DHT22;14378;51.796;5.808;2023-02-28T09:31:59;5.50;97.70
26803;DHT22;14378;51.796;5.808;2023-02-28T09:34:00;5.60;97.90
26803;DHT22;14378;51.796;5.808;2023-02-28T09:36:05;5.80;97.80
26803;DHT22;14378;51.796;5.808;2023-02-28T09:38:06;5.90;97.80
26803;DHT22;14378;51.796;5.808;2023-02-28T09:40:11;6.00;97.30
26803;DHT22;14378;51.796;5.808;2023-02-28T09:42:24;6.20;96.10
26803;DHT22;14378;51.796;5.808;2023-02-28T09:44:38;6.30;97.20
26803;DHT22;14378;51.796;5.808;2023-02-28T09:46:47;6.40;96.40
26803;DHT22;14378;51.796;5.808;2023-02-28T09:48:50;6.60;96.30
26803;DHT22;14378;51.796;5.808;2023-02-28T09:50:59;6.80;96.30
26803;DHT22;14378;51.796;5.808;2023-02-28T09:53:29;6.90;95.70
26803;DHT22;14378;51.796;5.808;2023-02-28T09:55:44;7.10;95.20
26803;DHT22;14378;51.796;5.808;2023-02-28T09:57:46;7.40;95.80
26803;DHT22;14378;51.796;5.808;2023-02-28T10:04:47;8.00;95.00
26803;DHT22;14378;51.796;5.808;2023-02-28T10:06:53;8.20;93.80
26803;DHT22;14378;51.796;5.808;2023-02-28T10:09:00;8.40;92.70
26803;DHT22;14378;51.796;5.808;2023-02-28T10:11:05;8.50;92.20
26803;DHT22;14378;51.796;5.808;2023-02-28T10:15:25;8.60;93.00
26803;DHT22;14378;51.796;5.808;2023-02-28T10:17:38;8.80;93.00
26803;DHT22;14378;51.796;5.808;2023-02-28T10:19:53;8.90;92.90
26803;DHT22;14378;51.796;5.808;2023-02-28T10:24:35;9.30;93.00
26803;DHT22;14378;51.796;5.808;2023-02-28T10:26:44;9.50;92.20
26803;DHT22;14378;51.796;5.808;2023-02-28T10:28:51;9.60;92.20
26803;DHT22;14378;51.796;5.808;2023-02-28T10:30:54;9.70;91.10
26803;DHT22;14378;51.796;5.808;2023-02-28T10:32:55;9.80;91.40
26803;DHT22;14378;51.796;5.808;2023-02-28T10:37:07;10.00;91.90
26803;DHT22;14378;51.796;5.808;2023-02-28T10:39:37;10.10;90.80
26803;DHT22;14378;51.796;5.808;2023-02-28T10:41:42;10.20;89.60
26803;DHT22;14378;51.796;5.808;2023-02-28T10:43:44;10.30;91.30
26803;DHT22;14378;51.796;5.808;2023-02-28T10:45:55;10.50;91.80
26803;DHT22;14378;51.796;5.808;2023-02-28T10:48:02;10.70;91.50
26803;DHT22;14378;51.796;5.808;2023-02-28T10:50:05;10.80;91.00
26803;DHT22;14378;51.796;5.808;2023-02-28T10:52:10;10.90;91.30
26803;DHT22;14378;51.796;5.808;2023-02-28T10:54:20;10.90;90.20
26803;DHT22;14378;51.796;5.808;2023-02-28T10:56:26;10.90;90.30
26803;DHT22;14378;51.796;5.808;2023-02-28T11:00:51;11.20;88.80
26803;DHT22;14378;51.796;5.808;2023-02-28T11:02:52;11.20;88.10
26803;DHT22;14378;51.796;5.808;2023-02-28T11:04:54;11.30;88.80
26803;DHT22;14378;51.796;5.808;2023-02-28T11:07:02;11.30;90.10
26803;DHT22;14378;51.796;5.808;2023-02-28T11:09:16;11.20;89.20
26803;DHT22;14378;51.796;5.808;2023-02-28T11:11:24;11.30;87.80
26803;DHT22;14378;51.796;5.808;2023-02-28T11:13:29;11.40;88.20
26803;DHT22;14378;51.796;5.808;2023-02-28T11:15:35;11.50;88.30
26803;DHT22;14378;51.796;5.808;2023-02-28T11:17:36;11.50;85.30
26803;DHT22;14378;51.796;5.808;2023-02-28T11:19:43;11.60;88.70
26803;DHT22;14378;51.796;5.808;2023-02-28T11:21:55;11.70;88.50
26803;DHT22;14378;51.796;5.808;2023-02-28T11:24:05;11.90;
26803;DHT22;14378;51.796;5.808;2023-02-28T11:26:14;12.00;87.60
26803;DHT22;14378;51.796;5.808;2023-02-28T11:28:32;12.10;87.70
26803;DHT22;14378;51.796;5.808;2023-02-28T11:30:41;12.30;86.80
26803;DHT22;14378;51.796;5.808;2023-02-28T11:32:48;12.40;87.30
26803;DHT22;14378;51.796;5.808;2023-02-28T11:37:16;12.50;84.80
26803;DHT22;14378;51.796;5.808;2023-02-28T11:39:17;12.40;83.50
26803;DHT22;14378;51.796;5.808;2023-02-28T11:44:21;12.50;83.50
26803;DHT22;14378;51.796;5.808;2023-02-28T11:46:49;12.50;82.00
26803;DHT22;14378;51.796;5.808;2023-02-28T11:51:27;12.70;83.50
26803;DHT22;14378;51.796;5.808;2023-02-28T12:00:45;13.10;84.10
26803;DHT22;14378;51.796;5.808;2023-02-28T12:07:34;13.40;82.10
26803;DHT22;14378;51.796;5.808;2023-02-28T12:09:45;13.50;83.90
26803;DHT22;14378;51.796;5.808;2023-02-28T12:14:23;13.30;80.50
26803;DHT22;14378;51.796;5.808;2023-02-28T12:16:57;13.40;85.20
26803;DHT22;14378;51.796;5.808;2023-02-28T12:27:46;13.90;83.70
26803;DHT22;14378;51.796;5.808;2023-02-28T12:32:06;14.10;83.10
26803;DHT22;14378;51.796;5.808;2023-02-28T12:34:15;14.20;79.80
26803;DHT22;14378;51.796;5.808;2023-02-28T12:36:18;14.20;80.10
26803;DHT22;14378;51.796;5.808;2023-02-28T12:40:41;14.30;78.50
26803;DHT22;14378;51.796;5.808;2023-02-28T12:42:47;14.30;81.20
26803;DHT22;14378;51.796;5.808;2023-02-28T12:44:54;14.50;81.00
26803;DHT22;14378;51.796;5.808;2023-02-28T12:47:03;14.60;79.10
26803;DHT22;14378;51.796;5.808;2023-02-28T12:49:16;14.60;78.00
26803;DHT22;14378;51.796;5.808;2023-02-28T12:51:19;14.70;79.50
26803;DHT22;14378;51.796;5.808;2023-02-28T12:53:39;14.70;79.90
26803;DHT22;14378;51.796;5.808;2023-02-28T12:56:07;14.70;78.10
26803;DHT22;14378;51.796;5.808;2023-02-28T12:58:33;14.70;78.80
26803;DHT22;14378;51.796;5.808;2023-02-28T13:00:38;14.60;78.00
26803;DHT22;14378;51.796;5.808;2023-02-28T13:10:02;14.50;77.30
26803;DHT22;14378;51.796;5.808;2023-02-28T13:12:15;14.60;76.50
26803;DHT22;14378;51.796;5.808;2023-02-28T13:14:59;14.70;77.40
26803;DHT22;14378;51.796;5.808;2023-02-28T13:19:16;14.90;80.60
26803;DHT22;14378;51.796;5.808;2023-02-28T13:21:28;15.00;79.20
26803;DHT22;14378;51.796;5.808;2023-02-28T13:25:53;15.40;79.90
26803;DHT22;14378;51.796;5.808;2023-02-28T13:27:55;15.60;79.70
26803;DHT22;14378;51.796;5.808;2023-02-28T13:34:27;15.80;80.10
26803;DHT22;14378;51.796;5.808;2023-02-28T13:36:32;15.90;79.10
26803;DHT22;14378;51.796;5.808;2023-02-28T13:38:42;15.90;77.70
26803;DHT22;14378;51.796;5.808;2023-02-28T13:40:43;15.80;77.20
26803;DHT22;14378;51.796;5.808;2023-02-28T13:47:28;15.70;76.40
26803;DHT22;14378;51.796;5.808;2023-02-28T13:49:31;15.70;78.80
26803;DHT22;14378;51.796;5.808;2023-02-28T13:51:43;15.80;77.70
26803;DHT22;14378;51.796;5.808;2023-02-28T13:53:57;15.80;75.10
26803;DHT22;14378;51.796;5.808;2023-02-28T13:56:27;15.70;75.70
26803;DHT22;14378;51.796;5.808;2023-02-28T14:00:46;15.80;77.00
26803;DHT22;14378;51.796;5.808;2023-02-28T14:03:14;15.90;77.50
26803;DHT22;14378;51.796;5.808;2023-02-28T14:05:19;15.80;77.60
26803;DHT22;14378;51.796;5.808;2023-02-28T14:07:30;15.70;74.60
26803;DHT22;14378;51.796;5.808;2023-02-28T14:09:38;15.70;76.60
26803;DHT22;14378;51.796;5.808;2023-02-28T14:11:42;15.70;74.90
26803;DHT22;14378;51.796;5.808;2023-02-28T14:13:46;15.40;73.30
26803;DHT22;14378;51.796;5.808;2023-02-28T14:15:59;15.30;73.20
26803;DHT22;14378;51.796;5.808;2023-02-28T14:18:02;15.20;72.50
26803;DHT22;14378;51.796;5.808;2023-02-28T14:20:04;15.00;75.20
26803;DHT22;14378;51.796;5.808;2023-02-28T14:23:06;15.00;75.40
26803;DHT22;14378;51.796;5.808;2023-02-28T14:25:22;15.10;78.70
26803;DHT22;14378;51.796;5.808;2023-02-28T14:27:29;15.00;74.10
26803;DHT22;14378;51.796;5.808;2023-02-28T14:34:53;14.90;76.50
26803;DHT22;14378;51.796;5.808;2023-02-28T14:37:00;14.90;79.00
26803;DHT22;14378;51.796;5.808;2023-02-28T14:39:14;14.80;77.90
26803;DHT22;14378;51.796;5.808;2023-02-28T14:41:20;14.80;76.10
26803;DHT22;14378;51.796;5.808;2023-02-28T14:43:25;14.80;75.30
26803;DHT22;14378;51.796;5.808;2023-02-28T14:45:27;14.70;75.30
26803;DHT22;14378;51.796;5.808;2023-02-28T14:47:32;14.50;77.20
26803;DHT22;14378;51.796;5.808;2023-02-28T14:49:43;14.40;80.10
26803;DHT22;14378;51.796;5.808;2023-02-28T14:51:47;14.30;77.70
26803;DHT22;14378;51.796;5.808;2023-02-28T14:53:56;14.30;78.90
26803;DHT22;14378;51.796;5.808;2023-02-28T14:55:58;14.30;80.30
26803;DHT22;14378;51.796;5.808;2023-02-28T14:58:03;14.10;77.30
26803;DHT22;14378;51.796;5.808;2023-02-28T15:02:23;13.90;78.60
26803;DHT22;14378;51.796;5.808;2023-02-28T15:04:26;13.80;79.60
26803;DHT22;14378;51.796;5.808;2023-02-28T15:06:28;13.60;78.70
26803;DHT22;14378;51.796;5.808;2023-02-28T15:08:32;13.60;77.20
26803;DHT22;14378;51.796;5.808;2023-02-28T15:10:37;13.60;78.30
26803;DHT22;14378;51.796;5.808;2023-02-28T15:12:41;13.50;76.90
26803;DHT22;14378;51.796;5.808;2023-02-28T15:14:48;13.40;77.80
26803;DHT22;14378;51.796;5.808;2023-02-28T15:16:54;13.30;78.40
26803;DHT22;14378;51.796;5.808;2023-02-28T15:21:03;13.20;80.60
26803;DHT22;14378;51.796;5.808;2023-02-28T15:23:07;13.10;78.70